sensor_id;sensor_type;location;lat;lon;timestamp;pressure;altitude;pressure_sealevel;temperature;humidity
69848;BME280;57143;55.940;37.496;2023-02-22T00:01:52;96913.88;;;-15.49;100.00
69848;BME280;57143;55.940;37.496;2023-02-22T00:04:35;96913.16;;;-15.51;100.00
69848;BME280;57143;55.940;37.496;2023-02-22T00:07:05;96911.50;;;-15.52;100.00
69848;BME280;57143;55.940;37.496;2023-02-22T00:09:33;96923.78;;;-15.54;100.00
69848;BME280;57143;55.940;37.496;2023-02-22T00:12:00;96929.28;;;-15.69;100.00
69848;BME280;57143;55.940;37.496;2023-02-22T00:14:27;96895.91;;;-15.73;100.00
69848;BME280;57143;55.940;37.496;2023-02-22T00:16:54;96930.53;;;-15.63;100.00
69848;BME280;57143;55.940;37.496;2023-02-22T00:19:24;96931.94;;;-15.59;100.00
69848;BME280;57143;55.940;37.496;2023-02-22T00:21:54;96910.00;;;-15.55;100.00
69848;BME280;57143;55.940;37.496;2023-02-22T00:24:24;96937.56;;;-15.54;100.00
69848;BME280;57143;55.940;37.496;2023-02-22T00:26:54;96894.03;;;-15.71;100.00
69848;BME280;57143;55.940;37.496;2023-02-22T00:29:23;96935.44;;;-15.49;100.00
69848;BME280;57143;55.940;37.496;2023-02-22T00:31:50;96947.13;;;-15.54;100.00
69848;BME280;57143;55.940;37.496;2023-02-22T00:34:18;96945.63;;;-15.57;100.00
69848;BME280;57143;55.940;37.496;2023-02-22T00:36:45;96957.50;;;-15.54;100.00
69848;BME280;57143;55.940;37.496;2023-02-22T00:39:12;96952.56;;;-15.57;100.00
69848;BME280;57143;55.940;37.496;2023-02-22T00:41:41;96953.09;;;-15.43;100.00
69848;BME280;57143;55.940;37.496;2023-02-22T00:44:09;96942.59;;;-15.62;100.00
69848;BME280;57143;55.940;37.496;2023-02-22T00:46:36;96950.56;;;-15.54;100.00
69848;BME280;57143;55.940;37.496;2023-02-22T00:49:03;96964.78;;;-15.69;100.00
69848;BME280;57143;55.940;37.496;2023-02-22T00:51:30;96972.88;;;-15.63;100.00
69848;BME280;57143;55.940;37.496;2023-02-22T00:53:58;96948.47;;;-15.60;100.00
69848;BME280;57143;55.940;37.496;2023-02-22T00:56:25;96971.00;;;-15.60;100.00
69848;BME280;57143;55.940;37.496;2023-02-22T00:58:54;96977.84;;;-15.91;100.00
69848;BME280;57143;55.940;37.496;2023-02-22T01:01:21;96973.72;;;-15.62;100.00
69848;BME280;57143;55.940;37.496;2023-02-22T01:03:49;96959.41;;;-15.77;100.00
69848;BME280;57143;55.940;37.496;2023-02-22T01:06:16;96971.28;;;-15.75;100.00
69848;BME280;57143;55.940;37.496;2023-02-22T01:08:43;96986.13;;;-15.77;100.00
69848;BME280;57143;55.940;37.496;2023-02-22T01:11:11;96996.28;;;-15.74;100.00
69848;BME280;57143;55.940;37.496;2023-02-22T01:13:38;96979.84;;;-15.95;100.00
69848;BME280;57143;55.940;37.496;2023-02-22T01:16:06;96995.47;;;-15.74;100.00
69848;BME280;57143;55.940;37.496;2023-02-22T01:18:34;97002.75;;;-15.68;100.00
69848;BME280;57143;55.940;37.496;2023-02-22T01:21:01;97007.16;;;-15.80;100.00
69848;BME280;57143;55.940;37.496;2023-02-22T01:23:29;97001.72;;;-15.77;100.00
69848;BME280;57143;55.940;37.496;2023-02-22T01:25:56;97000.78;;;-15.76;100.00
69848;BME280;57143;55.940;37.496;2023-02-22T01:28:23;96998.50;;;-15.69;100.00
69848;BME280;57143;55.940;37.496;2023-02-22T01:30:50;97000.06;;;-15.78;100.00
69848;BME280;57143;55.940;37.496;2023-02-22T01:33:22;96988.28;;;-15.82;100.00
69848;BME280;57143;55.940;37.496;2023-02-22T01:35:50;96992.19;;;-15.87;100.00
69848;BME280;57143;55.940;37.496;2023-02-22T01:38:17;96990.34;;;-15.96;100.00
69848;BME280;57143;55.940;37.496;2023-02-22T01:40:47;96990.81;;;-15.91;100.00
69848;BME280;57143;55.940;37.496;2023-02-22T01:43:18;96995.72;;;-15.88;100.00
69848;BME280;57143;55.940;37.496;2023-02-22T01:45:54;96939.16;;;-16.26;100.00
69848;BME280;57143;55.940;37.496;2023-02-22T01:48:31;97027.25;;;-16.04;100.00
69848;BME280;57143;55.940;37.496;2023-02-22T01:51:03;96881.31;;;-16.80;100.00
69848;BME280;57143;55.940;37.496;2023-02-22T01:53:37;97035.81;;;-15.92;100.00
69848;BME280;57143;55.940;37.496;2023-02-22T01:56:06;97034.31;;;-15.95;100.00
69848;BME280;57143;55.940;37.496;2023-02-22T01:58:35;97033.47;;;-16.06;100.00
69848;BME280;57143;55.940;37.496;2023-02-22T02:01:05;97048.31;;;-15.97;100.00
69848;BME280;57143;55.940;37.496;2023-02-22T02:03:36;97048.06;;;-15.94;100.00
69848;BME280;57143;55.940;37.496;2023-02-22T02:06:07;97063.06;;;-15.98;100.00
69848;BME280;57143;55.940;37.496;2023-02-22T02:08:44;97063.41;;;-16.02;100.00
69848;BME280;57143;55.940;37.496;2023-02-22T02:11:15;97067.69;;;-16.01;100.00
69848;BME280;57143;55.940;37.496;2023-02-22T02:13:43;97052.50;;;-16.17;100.00
69848;BME280;57143;55.940;37.496;2023-02-22T02:16:10;97088.41;;;-16.01;100.00
69848;BME280;57143;55.940;37.496;2023-02-22T02:18:39;97085.13;;;-16.14;100.00
69848;BME280;57143;55.940;37.496;2023-02-22T02:21:32;97093.03;;;-16.05;100.00
69848;BME280;57143;55.940;37.496;2023-02-22T02:27:21;97084.75;;;-16.10;100.00
69848;BME280;57143;55.940;37.496;2023-02-22T02:30:16;97100.69;;;-16.03;100.00
69848;BME280;57143;55.940;37.496;2023-02-22T02:32:54;97091.47;;;-16.07;100.00
69848;BME280;57143;55.940;37.496;2023-02-22T02:35:30;97098.41;;;-16.08;100.00
69848;BME280;57143;55.940;37.496;2023-02-22T02:38:06;97088.41;;;-16.12;100.00
69848;BME280;57143;55.940;37.496;2023-02-22T02:40:40;97104.44;;;-16.07;100.00
69848;BME280;57143;55.940;37.496;2023-02-22T02:43:16;97087.47;;;-16.22;100.00
69848;BME280;57143;55.940;37.496;2023-02-22T02:45:50;97118.81;;;-16.25;100.00
69848;BME280;57143;55.940;37.496;2023-02-22T02:48:24;97125.75;;;-16.15;100.00
69848;BME280;57143;55.940;37.496;2023-02-22T02:50:55;97070.63;;;-16.61;100.00
69848;BME280;57143;55.940;37.496;2023-02-22T02:53:35;97128.09;;;-16.34;100.00
69848;BME280;57143;55.940;37.496;2023-02-22T02:56:05;97126.59;;;-16.25;100.00
69848;BME280;57143;55.940;37.496;2023-02-22T02:58:32;97144.16;;;-16.18;100.00
69848;BME280;57143;55.940;37.496;2023-02-22T03:01:00;97131.31;;;-16.19;100.00
69848;BME280;57143;55.940;37.496;2023-02-22T03:04:00;97136.25;;;-16.27;100.00
69848;BME280;57143;55.940;37.496;2023-02-22T03:06:52;97139.19;;;-16.32;100.00
69848;BME280;57143;55.940;37.496;2023-02-22T03:09:34;97106.41;;;-16.66;100.00
69848;BME280;57143;55.940;37.496;2023-02-22T03:12:14;97047.84;;;-16.91;100.00
69848;BME280;57143;55.940;37.496;2023-02-22T03:14:51;97161.00;;;-16.34;100.00
69848;BME280;57143;55.940;37.496;2023-02-22T03:17:25;97092.44;;;-16.63;100.00
69848;BME280;57143;55.940;37.496;2023-02-22T03:19:58;97139.41;;;-16.35;100.00
69848;BME280;57143;55.940;37.496;2023-02-22T03:22:32;97135.63;;;-16.42;100.00
69848;BME280;57143;55.940;37.496;2023-02-22T03:25:07;97172.44;;;-16.26;100.00
69848;BME280;57143;55.940;37.496;2023-02-22T03:27:38;97192.75;;;-16.43;100.00
69848;BME280;57143;55.940;37.496;2023-02-22T03:30:12;97174.91;;;-16.46;100.00
69848;BME280;57143;55.940;37.496;2023-02-22T03:32:47;97158.88;;;-16.51;100.00
69848;BME280;57143;55.940;37.496;2023-02-22T03:35:18;97183.25;;;-16.32;100.00
69848;BME280;57143;55.940;37.496;2023-02-22T03:37:49;97185.72;;;-16.30;100.00
69848;BME280;57143;55.940;37.496;2023-02-22T03:40:23;97175.69;;;-16.46;100.00
69848;BME280;57143;55.940;37.496;2023-02-22T03:42:55;97206.34;;;-16.29;100.00
69848;BME280;57143;55.940;37.496;2023-02-22T03:45:26;97185.00;;;-16.43;100.00
69848;BME280;57143;55.940;37.496;2023-02-22T03:48:00;97208.56;;;-16.35;100.00
69848;BME280;57143;55.940;37.496;2023-02-22T03:50:34;97208.06;;;-16.40;100.00
69848;BME280;57143;55.940;37.496;2023-02-22T03:53:02;97225.91;;;-16.36;100.00
69848;BME280;57143;55.940;37.496;2023-02-22T03:55:32;97244.13;;;-16.48;100.00
69848;BME280;57143;55.940;37.496;2023-02-22T03:58:01;97174.63;;;-16.89;100.00
69848;BME280;57143;55.940;37.496;2023-02-22T04:00:32;97221.13;;;-16.64;100.00
69848;BME280;57143;55.940;37.496;2023-02-22T04:03:00;97250.16;;;-16.37;100.00
69848;BME280;57143;55.940;37.496;2023-02-22T04:05:27;97231.19;;;-16.48;100.00
69848;BME280;57143;55.940;37.496;2023-02-22T04:07:56;97255.78;;;-16.43;100.00
69848;BME280;57143;55.940;37.496;2023-02-22T04:10:24;97259.47;;;-16.69;100.00
69848;BME280;57143;55.940;37.496;2023-02-22T04:12:51;97272.56;;;-16.59;100.00
69848;BME280;57143;55.940;37.496;2023-02-22T04:15:21;97205.13;;;-16.93;100.00
69848;BME280;57143;55.940;37.496;2023-02-22T04:17:49;97278.97;;;-16.52;100.00
69848;BME280;57143;55.940;37.496;2023-02-22T04:20:17;97275.66;;;-16.54;100.00
69848;BME280;57143;55.940;37.496;2023-02-22T04:22:45;97275.50;;;-16.64;100.00
69848;BME280;57143;55.940;37.496;2023-02-22T04:25:14;97254.84;;;-16.76;100.00
69848;BME280;57143;55.940;37.496;2023-02-22T04:27:41;97283.72;;;-16.46;100.00
69848;BME280;57143;55.940;37.496;2023-02-22T04:30:09;97261.00;;;-16.66;100.00
69848;BME280;57143;55.940;37.496;2023-02-22T04:32:37;97303.97;;;-16.51;100.00
69848;BME280;57143;55.940;37.496;2023-02-22T04:35:05;97311.72;;;-16.51;100.00
69848;BME280;57143;55.940;37.496;2023-02-22T04:37:32;97315.41;;;-16.66;100.00
69848;BME280;57143;55.940;37.496;2023-02-22T04:39:59;97323.78;;;-16.63;100.00
69848;BME280;57143;55.940;37.496;2023-02-22T04:42:28;97321.16;;;-16.50;100.00
69848;BME280;57143;55.940;37.496;2023-02-22T04:44:55;97296.38;;;-16.54;100.00
69848;BME280;57143;55.940;37.496;2023-02-22T04:47:23;97330.06;;;-16.54;100.00
69848;BME280;57143;55.940;37.496;2023-02-22T04:49:50;97327.41;;;-16.53;100.00
69848;BME280;57143;55.940;37.496;2023-02-22T04:52:17;97320.03;;;-16.59;100.00
69848;BME280;57143;55.940;37.496;2023-02-22T04:54:44;97333.59;;;-16.55;100.00
69848;BME280;57143;55.940;37.496;2023-02-22T04:57:11;97325.50;;;-16.51;100.00
69848;BME280;57143;55.940;37.496;2023-02-22T04:59:39;97327.41;;;-16.53;100.00
69848;BME280;57143;55.940;37.496;2023-02-22T05:02:07;97325.59;;;-16.52;100.00
69848;BME280;57143;55.940;37.496;2023-02-22T05:04:35;97329.16;;;-16.53;100.00
69848;BME280;57143;55.940;37.496;2023-02-22T05:07:03;97340.34;;;-16.42;100.00
69848;BME280;57143;55.940;37.496;2023-02-22T05:09:31;97355.91;;;-16.42;100.00
69848;BME280;57143;55.940;37.496;2023-02-22T05:11:58;97338.88;;;-16.33;100.00
69848;BME280;57143;55.940;37.496;2023-02-22T05:14:25;97349.88;;;-16.42;100.00
69848;BME280;57143;55.940;37.496;2023-02-22T05:16:54;97356.09;;;-16.32;100.00
69848;BME280;57143;55.940;37.496;2023-02-22T05:19:22;97372.94;;;-16.27;100.00
69848;BME280;57143;55.940;37.496;2023-02-22T05:21:50;97375.91;;;-16.44;100.00
69848;BME280;57143;55.940;37.496;2023-02-22T05:24:17;97360.16;;;-16.41;100.00
69848;BME280;57143;55.940;37.496;2023-02-22T05:26:44;97378.81;;;-16.36;100.00
69848;BME280;57143;55.940;37.496;2023-02-22T05:29:12;97370.84;;;-16.45;100.00
69848;BME280;57143;55.940;37.496;2023-02-22T05:31:39;97401.25;;;-16.24;100.00
69848;BME280;57143;55.940;37.496;2023-02-22T05:34:08;97399.88;;;-16.17;100.00
69848;BME280;57143;55.940;37.496;2023-02-22T05:36:35;97403.00;;;-16.24;100.00
69848;BME280;57143;55.940;37.496;2023-02-22T05:39:02;97428.66;;;-16.09;100.00
69848;BME280;57143;55.940;37.496;2023-02-22T05:41:30;97418.06;;;-16.06;100.00
69848;BME280;57143;55.940;37.496;2023-02-22T05:43:57;97450.44;;;-16.11;100.00
69848;BME280;57143;55.940;37.496;2023-02-22T05:46:24;97457.56;;;-16.02;100.00
69848;BME280;57143;55.940;37.496;2023-02-22T05:48:51;97447.47;;;-15.71;100.00
69848;BME280;57143;55.940;37.496;2023-02-22T05:51:19;97461.81;;;-15.54;100.00
69848;BME280;57143;55.940;37.496;2023-02-22T05:53:47;97464.34;;;-15.41;100.00
69848;BME280;57143;55.940;37.496;2023-02-22T05:56:20;97426.38;;;-15.09;100.00
69848;BME280;57143;55.940;37.496;2023-02-22T05:58:47;97448.47;;;-14.26;100.00
69848;BME280;57143;55.940;37.496;2023-02-22T06:01:15;97459.59;;;-14.47;100.00
69848;BME280;57143;55.940;37.496;2023-02-22T06:03:44;97487.09;;;-14.22;100.00
69848;BME280;57143;55.940;37.496;2023-02-22T06:06:11;97507.53;;;-14.06;100.00
69848;BME280;57143;55.940;37.496;2023-02-22T06:08:43;97515.75;;;-13.68;100.00
69848;BME280;57143;55.940;37.496;2023-02-22T06:11:10;97546.88;;;-13.78;100.00
69848;BME280;57143;55.940;37.496;2023-02-22T06:13:38;97584.25;;;-13.57;100.00
69848;BME280;57143;55.940;37.496;2023-02-22T06:16:06;97602.75;;;-14.15;100.00
69848;BME280;57143;55.940;37.496;2023-02-22T06:18:34;97635.03;;;-13.51;100.00
69848;BME280;57143;55.940;37.496;2023-02-22T06:21:01;97658.91;;;-13.35;100.00
69848;BME280;57143;55.940;37.496;2023-02-22T06:23:29;97646.16;;;-12.75;100.00
69848;BME280;57143;55.940;37.496;2023-02-22T06:25:57;97641.38;;;-13.22;100.00
69848;BME280;57143;55.940;37.496;2023-02-22T06:28:24;97725.28;;;-12.96;100.00
69848;BME280;57143;55.940;37.496;2023-02-22T06:30:52;97717.75;;;-13.10;100.00
69848;BME280;57143;55.940;37.496;2023-02-22T06:33:19;97763.34;;;-12.51;100.00
69848;BME280;57143;55.940;37.496;2023-02-22T06:35:46;97782.25;;;-12.81;100.00
69848;BME280;57143;55.940;37.496;2023-02-22T06:38:20;97770.75;;;-13.00;100.00
69848;BME280;57143;55.940;37.496;2023-02-22T06:40:47;97803.38;;;-13.06;100.00
69848;BME280;57143;55.940;37.496;2023-02-22T06:43:16;97824.44;;;-12.87;100.00
69848;BME280;57143;55.940;37.496;2023-02-22T06:45:43;97831.97;;;-12.51;100.00
69848;BME280;57143;55.940;37.496;2023-02-22T06:48:10;97857.84;;;-12.81;100.00
69848;BME280;57143;55.940;37.496;2023-02-22T06:50:37;97862.00;;;-12.78;100.00
69848;BME280;57143;55.940;37.496;2023-02-22T06:53:04;97828.22;;;-12.69;100.00
69848;BME280;57143;55.940;37.496;2023-02-22T06:55:32;97863.38;;;-11.87;100.00
69848;BME280;57143;55.940;37.496;2023-02-22T06:58:01;97880.19;;;-12.12;100.00
69848;BME280;57143;55.940;37.496;2023-02-22T07:00:30;97882.13;;;-11.62;100.00
69848;BME280;57143;55.940;37.496;2023-02-22T07:02:58;97853.84;;;-11.57;100.00
69848;BME280;57143;55.940;37.496;2023-02-22T07:05:26;97917.31;;;-11.66;100.00
69848;BME280;57143;55.940;37.496;2023-02-22T07:07:55;97829.50;;;-12.52;100.00
69848;BME280;57143;55.940;37.496;2023-02-22T07:10:29;97875.34;;;-11.85;100.00
69848;BME280;57143;55.940;37.496;2023-02-22T07:12:56;97945.00;;;-11.74;100.00
69848;BME280;57143;55.940;37.496;2023-02-22T07:15:25;97922.94;;;-11.50;100.00
69848;BME280;57143;55.940;37.496;2023-02-22T07:17:54;97908.56;;;-11.76;100.00
69848;BME280;57143;55.940;37.496;2023-02-22T07:20:22;97862.97;;;-11.51;100.00
69848;BME280;57143;55.940;37.496;2023-02-22T07:22:50;97789.28;;;-12.07;100.00
69848;BME280;57143;55.940;37.496;2023-02-22T07:25:17;97808.22;;;-11.53;100.00
69848;BME280;57143;55.940;37.496;2023-02-22T07:27:45;97762.22;;;-11.14;100.00
69848;BME280;57143;55.940;37.496;2023-02-22T07:30:16;97753.63;;;-11.76;100.00
69848;BME280;57143;55.940;37.496;2023-02-22T07:32:43;97807.66;;;-11.06;100.00
69848;BME280;57143;55.940;37.496;2023-02-22T07:35:15;97789.19;;;-11.64;100.00
69848;BME280;57143;55.940;37.496;2023-02-22T07:37:43;97822.78;;;-10.79;100.00
69848;BME280;57143;55.940;37.496;2023-02-22T07:40:13;97851.09;;;-11.14;100.00
69848;BME280;57143;55.940;37.496;2023-02-22T07:42:52;97870.81;;;-11.72;100.00
69848;BME280;57143;55.940;37.496;2023-02-22T07:45:20;97872.72;;;-11.12;100.00
69848;BME280;57143;55.940;37.496;2023-02-22T07:47:48;97884.06;;;-11.23;100.00
69848;BME280;57143;55.940;37.496;2023-02-22T07:50:17;97887.16;;;-10.67;100.00
69848;BME280;57143;55.940;37.496;2023-02-22T07:52:45;97912.97;;;-10.53;100.00
69848;BME280;57143;55.940;37.496;2023-02-22T07:55:13;97945.00;;;-10.91;100.00
69848;BME280;57143;55.940;37.496;2023-02-22T07:57:41;97954.34;;;-11.09;100.00
69848;BME280;57143;55.940;37.496;2023-02-22T08:00:10;97956.53;;;-11.14;100.00
69848;BME280;57143;55.940;37.496;2023-02-22T08:02:39;97939.25;;;-10.85;100.00
69848;BME280;57143;55.940;37.496;2023-02-22T08:05:07;97965.03;;;-10.59;100.00
69848;BME280;57143;55.940;37.496;2023-02-22T08:07:37;97963.03;;;-10.16;100.00
69848;BME280;57143;55.940;37.496;2023-02-22T08:10:05;97973.63;;;-9.69;100.00
69848;BME280;57143;55.940;37.496;2023-02-22T08:12:32;98006.91;;;-10.29;100.00
69848;BME280;57143;55.940;37.496;2023-02-22T08:15:01;98033.59;;;-10.15;100.00
69848;BME280;57143;55.940;37.496;2023-02-22T08:17:29;98046.75;;;-10.26;100.00
69848;BME280;57143;55.940;37.496;2023-02-22T08:19:57;98043.94;;;-10.04;100.00
69848;BME280;57143;55.940;37.496;2023-02-22T08:22:24;98045.00;;;-9.86;100.00
69848;BME280;57143;55.940;37.496;2023-02-22T08:24:53;98024.78;;;-10.14;100.00
69848;BME280;57143;55.940;37.496;2023-02-22T08:27:23;98080.22;;;-10.29;100.00
69848;BME280;57143;55.940;37.496;2023-02-22T08:29:51;98088.25;;;-10.21;100.00
69848;BME280;57143;55.940;37.496;2023-02-22T08:32:18;98093.91;;;-10.26;100.00
69848;BME280;57143;55.940;37.496;2023-02-22T08:34:45;98093.91;;;-9.96;100.00
69848;BME280;57143;55.940;37.496;2023-02-22T08:37:13;98103.16;;;-9.92;100.00
69848;BME280;57143;55.940;37.496;2023-02-22T08:39:41;98116.56;;;-10.15;100.00
69848;BME280;57143;55.940;37.496;2023-02-22T08:42:09;98114.41;;;-10.31;100.00
69848;BME280;57143;55.940;37.496;2023-02-22T08:44:38;98146.50;;;-10.92;100.00
69848;BME280;57143;55.940;37.496;2023-02-22T08:47:06;98114.09;;;-10.37;100.00
69848;BME280;57143;55.940;37.496;2023-02-22T08:49:33;98135.88;;;-11.11;100.00
69848;BME280;57143;55.940;37.496;2023-02-22T08:52:00;98131.97;;;-11.28;100.00
69848;BME280;57143;55.940;37.496;2023-02-22T08:54:27;98106.72;;;-11.07;100.00
69848;BME280;57143;55.940;37.496;2023-02-22T08:56:54;98080.09;;;-11.54;100.00
69848;BME280;57143;55.940;37.496;2023-02-22T08:59:23;98082.88;;;-11.35;100.00
69848;BME280;57143;55.940;37.496;2023-02-22T09:01:50;98074.28;;;-11.58;100.00
69848;BME280;57143;55.940;37.496;2023-02-22T09:04:17;98027.47;;;-11.50;100.00
69848;BME280;57143;55.940;37.496;2023-02-22T09:06:44;98006.63;;;-11.40;100.00
69848;BME280;57143;55.940;37.496;2023-02-22T09:09:17;98015.66;;;-11.76;100.00
69848;BME280;57143;55.940;37.496;2023-02-22T09:11:46;97982.63;;;-11.66;100.00
69848;BME280;57143;55.940;37.496;2023-02-22T09:14:13;97968.53;;;-11.43;100.00
69848;BME280;57143;55.940;37.496;2023-02-22T09:16:43;97939.06;;;-11.76;100.00
69848;BME280;57143;55.940;37.496;2023-02-22T09:19:11;97907.88;;;-11.57;100.00
69848;BME280;57143;55.940;37.496;2023-02-22T09:21:38;97878.19;;;-11.56;100.00
69848;BME280;57143;55.940;37.496;2023-02-22T09:24:06;97885.00;;;-11.85;100.00
69848;BME280;57143;55.940;37.496;2023-02-22T09:26:34;97855.47;;;-11.65;100.00
69848;BME280;57143;55.940;37.496;2023-02-22T09:29:05;97828.69;;;-11.78;100.00
69848;BME280;57143;55.940;37.496;2023-02-22T09:31:35;97796.00;;;-11.73;100.00
69848;BME280;57143;55.940;37.496;2023-02-22T09:34:05;97773.78;;;-11.67;100.00
69848;BME280;57143;55.940;37.496;2023-02-22T09:36:39;97754.59;;;-11.47;100.00
69848;BME280;57143;55.940;37.496;2023-02-22T09:39:06;97736.75;;;-11.12;100.00
69848;BME280;57143;55.940;37.496;2023-02-22T09:41:37;97734.72;;;-11.59;100.00
69848;BME280;57143;55.940;37.496;2023-02-22T09:44:15;97729.84;;;-11.23;100.00
69848;BME280;57143;55.940;37.496;2023-02-22T09:46:44;97735.78;;;-11.51;100.00
69848;BME280;57143;55.940;37.496;2023-02-22T09:49:20;97726.59;;;-11.06;100.00
69848;BME280;57143;55.940;37.496;2023-02-22T09:51:52;97716.81;;;-11.43;100.00
69848;BME280;57143;55.940;37.496;2023-02-22T09:54:25;97696.13;;;-11.56;100.00
69848;BME280;57143;55.940;37.496;2023-02-22T09:56:56;97674.81;;;-11.21;100.00
69848;BME280;57143;55.940;37.496;2023-02-22T09:59:28;97712.66;;;-10.76;100.00
69848;BME280;57143;55.940;37.496;2023-02-22T10:02:01;97717.25;;;-10.49;100.00
69848;BME280;57143;55.940;37.496;2023-02-22T10:04:39;97675.34;;;-10.68;100.00
69848;BME280;57143;55.940;37.496;2023-02-22T10:07:15;97720.69;;;-10.39;100.00
69848;BME280;57143;55.940;37.496;2023-02-22T10:09:46;97753.63;;;-10.46;100.00
69848;BME280;57143;55.940;37.496;2023-02-22T10:12:22;97792.63;;;-11.13;100.00
69848;BME280;57143;55.940;37.496;2023-02-22T10:18:20;97771.84;;;-10.35;100.00
69848;BME280;57143;55.940;37.496;2023-02-22T10:20:58;97794.38;;;-10.53;100.00
69848;BME280;57143;55.940;37.496;2023-02-22T10:23:31;97816.00;;;-10.91;100.00
69848;BME280;57143;55.940;37.496;2023-02-22T10:26:12;97818.31;;;-10.98;100.00
69848;BME280;57143;55.940;37.496;2023-02-22T10:28:42;97757.59;;;-11.01;100.00
69848;BME280;57143;55.940;37.496;2023-02-22T10:31:19;97821.59;;;-10.96;100.00
69848;BME280;57143;55.940;37.496;2023-02-22T10:33:51;97821.16;;;-11.01;100.00
69848;BME280;57143;55.940;37.496;2023-02-22T10:36:22;97834.72;;;-11.16;100.00
69848;BME280;57143;55.940;37.496;2023-02-22T10:38:54;97829.28;;;-11.04;100.00
69848;BME280;57143;55.940;37.496;2023-02-22T10:41:30;97777.31;;;-11.18;100.00
69848;BME280;57143;55.940;37.496;2023-02-22T10:44:00;97772.03;;;-11.07;100.00
69848;BME280;57143;55.940;37.496;2023-02-22T10:46:29;97808.38;;;-11.04;100.00
69848;BME280;57143;55.940;37.496;2023-02-22T10:49:01;97788.50;;;-10.76;100.00
69848;BME280;57143;55.940;37.496;2023-02-22T10:51:33;97783.19;;;-11.05;100.00
69848;BME280;57143;55.940;37.496;2023-02-22T10:54:18;97775.50;;;-10.97;100.00
69848;BME280;57143;55.940;37.496;2023-02-22T10:56:50;97779.22;;;-10.99;100.00
69848;BME280;57143;55.940;37.496;2023-02-22T10:59:27;97797.25;;;-10.96;100.00
69848;BME280;57143;55.940;37.496;2023-02-22T11:01:55;97731.06;;;-11.27;100.00
69848;BME280;57143;55.940;37.496;2023-02-22T11:04:23;97762.63;;;-11.19;100.00
69848;BME280;57143;55.940;37.496;2023-02-22T11:07:19;97768.22;;;-10.93;100.00
69848;BME280;57143;55.940;37.496;2023-02-22T11:09:50;97746.19;;;-11.30;100.00
69848;BME280;57143;55.940;37.496;2023-02-22T11:12:19;97746.66;;;-10.76;100.00
69848;BME280;57143;55.940;37.496;2023-02-22T11:14:50;97747.28;;;-10.93;100.00
69848;BME280;57143;55.940;37.496;2023-02-22T11:17:25;97707.59;;;-10.58;100.00
69848;BME280;57143;55.940;37.496;2023-02-22T11:19:54;97695.91;;;-10.35;100.00
69848;BME280;57143;55.940;37.496;2023-02-22T11:22:26;97688.03;;;-10.26;100.00
69848;BME280;57143;55.940;37.496;2023-02-22T11:25:00;97692.75;;;-10.39;100.00
69848;BME280;57143;55.940;37.496;2023-02-22T11:27:34;97692.84;;;-10.40;100.00
69848;BME280;57143;55.940;37.496;2023-02-22T11:30:25;97740.13;;;-10.32;100.00
69848;BME280;57143;55.940;37.496;2023-02-22T11:32:56;97746.00;;;-10.59;100.00
69848;BME280;57143;55.940;37.496;2023-02-22T11:35:34;97715.06;;;-11.03;100.00
69848;BME280;57143;55.940;37.496;2023-02-22T11:38:15;97730.44;;;-10.70;100.00
69848;BME280;57143;55.940;37.496;2023-02-22T11:40:43;97717.78;;;-10.55;100.00
69848;BME280;57143;55.940;37.496;2023-02-22T11:43:14;97720.13;;;-10.62;100.00
69848;BME280;57143;55.940;37.496;2023-02-22T11:45:57;97719.09;;;-11.20;100.00
69848;BME280;57143;55.940;37.496;2023-02-22T11:48:29;97744.13;;;-10.97;100.00
69848;BME280;57143;55.940;37.496;2023-02-22T11:51:25;97707.16;;;-11.22;100.00
69848;BME280;57143;55.940;37.496;2023-02-22T11:57:18;97718.81;;;-10.87;100.00
69848;BME280;57143;55.940;37.496;2023-02-22T11:59:59;97689.34;;;-10.89;100.00
69848;BME280;57143;55.940;37.496;2023-02-22T12:02:45;97724.84;;;-10.96;100.00
69848;BME280;57143;55.940;37.496;2023-02-22T12:05:28;97715.91;;;-11.03;100.00
69848;BME280;57143;55.940;37.496;2023-02-22T12:08:11;97701.94;;;-11.13;100.00
69848;BME280;57143;55.940;37.496;2023-02-22T12:10:54;97674.16;;;-11.04;100.00
69848;BME280;57143;55.940;37.496;2023-02-22T12:13:39;97703.41;;;-10.90;100.00
69848;BME280;57143;55.940;37.496;2023-02-22T12:16:15;97731.31;;;-11.00;100.00
69848;BME280;57143;55.940;37.496;2023-02-22T12:18:57;97700.56;;;-11.17;100.00
69848;BME280;57143;55.940;37.496;2023-02-22T12:21:29;97760.16;;;-10.81;100.00
69848;BME280;57143;55.940;37.496;2023-02-22T12:24:02;97746.47;;;-10.94;100.00
69848;BME280;57143;55.940;37.496;2023-02-22T12:26:35;97712.47;;;-11.33;100.00
69848;BME280;57143;55.940;37.496;2023-02-22T12:29:08;97784.06;;;-10.85;100.00
69848;BME280;57143;55.940;37.496;2023-02-22T12:31:42;97804.00;;;-10.94;100.00
69848;BME280;57143;55.940;37.496;2023-02-22T12:34:19;97812.75;;;-11.04;100.00
69848;BME280;57143;55.940;37.496;2023-02-22T12:36:54;97807.22;;;-11.11;100.00
69848;BME280;57143;55.940;37.496;2023-02-22T12:39:38;97831.53;;;-11.20;100.00
69848;BME280;57143;55.940;37.496;2023-02-22T12:42:14;97860.28;;;-10.99;100.00
69848;BME280;57143;55.940;37.496;2023-02-22T12:44:45;97914.19;;;-10.87;100.00
69848;BME280;57143;55.940;37.496;2023-02-22T12:47:20;97925.84;;;-10.91;100.00
69848;BME280;57143;55.940;37.496;2023-02-22T12:49:54;97871.97;;;-11.44;100.00
69848;BME280;57143;55.940;37.496;2023-02-22T12:52:34;97971.72;;;-10.87;100.00
69848;BME280;57143;55.940;37.496;2023-02-22T12:55:08;98001.13;;;-10.95;100.00
69848;BME280;57143;55.940;37.496;2023-02-22T12:57:45;97968.31;;;-11.19;100.00
69848;BME280;57143;55.940;37.496;2023-02-22T13:00:16;98040.19;;;-10.82;100.00